Time;durP1;ratioP1;P1;durP2;ratioP2;P2;SDS_P1;SDS_P2;PMS_P1;PMS_P2;Temp;Humidity;BMP_temperature;BMP_pressure;BME280_temperature;BME280_humidity;BME280_pressure;Samples;Min_cycle;Max_cycle;Signal;HPM_P1;HPM_P2
2023/10/13 00:00:36;;;;;;;25.15;12.55;;;;;;;;;;4917831;29;20470;-62
2023/10/13 00:03:06;;;;;;;21.80;11.60;;;;;;;;;;4916168;29;20047;-62
2023/10/13 00:05:32;;;;;;;19.45;11.77;;;;;;;;;;4917688;29;20489;-61
2023/10/13 00:08:03;;;;;;;19.73;11.20;;;;;;;;;;4916190;29;20033;-61
2023/10/13 00:10:30;;;;;;;19.58;11.85;;;;;;;;;;4916636;29;20119;-61
2023/10/13 00:13:06;;;;;;;20.70;11.98;;;;;;;;;;4934071;29;20105;-61
2023/10/13 00:15:38;;;;;;;23.25;11.95;;;;;;;;;;4899319;29;20041;-61
2023/10/13 00:18:12;;;;;;;22.42;12.27;;;;;;;;;;4899707;29;20159;-61
2023/10/13 00:20:49;;;;;;;23.48;12.23;;;;;;;;;;4936257;29;20388;-63
2023/10/13 00:23:15;;;;;;;20.23;11.48;;;;;;;;;;4929023;29;20051;-61
2023/10/13 00:25:50;;;;;;;20.50;11.45;;;;;;;;;;4936018;29;20078;-61
2023/10/13 00:28:23;;;;;;;20.15;11.98;;;;;;;;;;4933506;29;20034;-61
2023/10/13 00:30:59;;;;;;;18.85;10.95;;;;;;;;;;4917120;29;20071;-61
2023/10/13 00:33:25;;;;;;;19.98;11.35;;;;;;;;;;4932264;29;20048;-61
2023/10/13 00:35:52;;;;;;;19.15;10.80;;;;;;;;;;4918606;29;20024;-62
2023/10/13 00:38:19;;;;;;;17.00;10.75;;;;;;;;;;4899746;29;20036;-62
2023/10/13 00:40:51;;;;;;;17.17;10.75;;;;;;;;;;4915298;29;20032;-61
2023/10/13 00:45:55;;;;;;;16.00;9.68;;;;;;;;;;4935807;29;20032;-61
2023/10/13 00:48:34;;;;;;;14.35;8.88;;;;;;;;;;4918591;29;20177;-61
2023/10/13 00:51:06;;;;;;;17.40;9.02;;;;;;;;;;4935979;29;20031;-61
2023/10/13 00:53:34;;;;;;;15.75;8.90;;;;;;;;;;4932173;29;20038;-61
2023/10/13 00:56:07;;;;;;;17.17;9.75;;;;;;;;;;4930342;29;20127;-63
2023/10/13 00:58:40;;;;;;;15.63;9.40;;;;;;;;;;4917985;29;20063;-61
2023/10/13 01:01:17;;;;;;;16.25;9.43;;;;;;;;;;4935178;29;20044;-61
2023/10/13 01:03:48;;;;;;;18.98;9.75;;;;;;;;;;4931428;29;20032;-61
2023/10/13 01:06:18;;;;;;;14.38;9.20;;;;;;;;;;4928951;29;20498;-61
2023/10/13 01:11:56;;;;;;;21.30;9.88;;;;;;;;;;4923509;29;20066;-61
2023/10/13 01:14:27;;;;;;;17.83;9.80;;;;;;;;;;4935547;29;20031;-61
2023/10/13 01:16:52;;;;;;;;;;;;;;;;;;4934201;29;20450;-61
2023/10/13 01:19:24;;;;;;;17.50;9.38;;;;;;;;;;4917762;29;19946;-61
2023/10/13 01:22:02;;;;;;;14.25;9.35;;;;;;;;;;4934425;29;20039;-61
2023/10/13 01:24:31;;;;;;;13.80;9.05;;;;;;;;;;4934249;29;20034;-61
2023/10/13 01:26:57;;;;;;;18.30;9.70;;;;;;;;;;4933443;29;20059;-61
2023/10/13 01:29:29;;;;;;;14.02;9.07;;;;;;;;;;4932881;29;20038;-61
2023/10/13 01:31:54;;;;;;;13.20;9.38;;;;;;;;;;4934379;29;20042;-61
2023/10/13 01:34:23;;;;;;;17.05;9.32;;;;;;;;;;4934597;29;20035;-61
2023/10/13 01:36:50;;;;;;;17.15;9.65;;;;;;;;;;4935040;29;20038;-61
2023/10/13 01:39:17;;;;;;;18.63;9.90;;;;;;;;;;4933664;29;20050;-61
2023/10/13 01:41:43;;;;;;;17.00;9.40;;;;;;;;;;4934355;29;20497;-64
2023/10/13 01:44:11;;;;;;;17.77;9.57;;;;;;;;;;4937470;29;20056;-60
2023/10/13 01:46:38;;;;;;;15.55;9.70;;;;;;;;;;4913752;29;20031;-61
2023/10/13 01:49:03;;;;;;;17.48;9.70;;;;;;;;;;4933670;29;20039;-62
2023/10/13 01:51:31;;;;;;;16.17;9.70;;;;;;;;;;4934249;29;20377;-59
2023/10/13 01:53:56;;;;;;;17.50;9.52;;;;;;;;;;4917374;29;20036;-61
2023/10/13 01:56:29;;;;;;;15.23;9.50;;;;;;;;;;4932760;29;20034;-62
2023/10/13 01:58:54;;;;;;;15.20;10.05;;;;;;;;;;4932969;29;20052;-60
2023/10/13 02:01:29;;;;;;;16.42;9.40;;;;;;;;;;4934532;29;20489;-61
2023/10/13 02:04:04;;;;;;;19.27;10.02;;;;;;;;;;4938762;29;20145;-62
2023/10/13 02:06:36;;;;;;;21.20;9.77;;;;;;;;;;4914994;29;20483;-61
2023/10/13 02:09:15;;;;;;;17.92;9.98;;;;;;;;;;4932207;29;20520;-61
2023/10/13 02:11:42;;;;;;;13.77;9.05;;;;;;;;;;4933584;29;20043;-61
2023/10/13 02:14:11;;;;;;;14.13;8.73;;;;;;;;;;4918649;29;20397;-61
2023/10/13 02:16:39;;;;;;;15.40;9.80;;;;;;;;;;4913569;29;20103;-62
2023/10/13 02:19:04;;;;;;;15.80;9.60;;;;;;;;;;4915237;29;20031;-61
2023/10/13 02:21:39;;;;;;;15.38;9.43;;;;;;;;;;4915120;29;20032;-60
2023/10/13 02:24:12;;;;;;;15.40;9.27;;;;;;;;;;4913869;29;20103;-61
2023/10/13 02:26:41;;;;;;;16.35;10.02;;;;;;;;;;4913697;29;20032;-61
2023/10/13 02:29:17;;;;;;;14.45;8.57;;;;;;;;;;4912530;29;20552;-60
2023/10/13 02:31:54;;;;;;;18.83;9.95;;;;;;;;;;4912856;29;20032;-63
2023/10/13 02:34:19;;;;;;;16.75;9.18;;;;;;;;;;4913503;29;20040;-63
2023/10/13 02:36:48;;;;;;;17.30;9.73;;;;;;;;;;4911757;29;20389;-63
2023/10/13 02:39:24;;;;;;;19.13;9.80;;;;;;;;;;4915823;29;20028;-60
2023/10/13 02:41:50;;;;;;;19.27;9.23;;;;;;;;;;4914387;29;20028;-60
2023/10/13 02:44:26;;;;;;;14.75;9.60;;;;;;;;;;4914373;29;20063;-60
2023/10/13 02:46:55;;;;;;;14.82;9.55;;;;;;;;;;4921958;29;20028;-61
2023/10/13 02:49:20;;;;;;;16.10;9.43;;;;;;;;;;4898494;29;20040;-61
2023/10/13 02:51:45;;;;;;;18.75;9.80;;;;;;;;;;4913745;29;20092;-63
2023/10/13 02:54:12;;;;;;;16.92;9.43;;;;;;;;;;4913055;29;20044;-61
2023/10/13 02:56:49;;;;;;;20.80;9.18;;;;;;;;;;4913772;29;20405;-60
2023/10/13 02:59:14;;;;;;;17.42;9.40;;;;;;;;;;4913707;29;20036;-60
2023/10/13 03:01:43;;;;;;;16.13;9.38;;;;;;;;;;4914920;29;20040;-64
2023/10/13 03:04:12;;;;;;;15.75;9.05;;;;;;;;;;4909008;29;20096;-61
2023/10/13 03:06:40;;;;;;;20.55;9.55;;;;;;;;;;4902298;29;20122;-60
2023/10/13 03:11:59;;;;;;;16.73;9.45;;;;;;;;;;4922500;29;20043;-60
2023/10/13 03:14:33;;;;;;;14.07;8.90;;;;;;;;;;4921217;29;20040;-60
2023/10/13 03:17:08;;;;;;;14.60;9.20;;;;;;;;;;4929051;29;20103;-60
2023/10/13 03:19:36;;;;;;;16.98;9.15;;;;;;;;;;4928962;29;20063;-60
2023/10/13 03:22:09;;;;;;;18.35;9.48;;;;;;;;;;4920442;29;20465;-62
2023/10/13 03:24:53;;;;;;;18.90;10.18;;;;;;;;;;4925438;29;20036;-60
2023/10/13 03:27:24;;;;;;;17.83;9.38;;;;;;;;;;4930939;29;20043;-60
2023/10/13 03:29:54;;;;;;;16.70;10.05;;;;;;;;;;4931240;29;20529;-64
2023/10/13 03:32:20;;;;;;;17.05;9.73;;;;;;;;;;4923899;29;20027;-62
2023/10/13 03:35:12;;;;;;;15.30;9.85;;;;;;;;;;4932987;29;20099;-61
2023/10/13 03:37:38;;;;;;;17.65;9.95;;;;;;;;;;4932758;29;20044;-61
2023/10/13 03:45:39;;;;;;;17.63;10.52;;;;;;;;;;4914221;29;20036;-61
2023/10/13 03:53:35;;;;;;;20.58;11.50;;;;;;;;;;4914345;29;20158;-61
2023/10/13 03:56:08;;;;;;;23.15;12.20;;;;;;;;;;4924657;29;20532;-62
2023/10/13 03:58:45;;;;;;;23.02;11.85;;;;;;;;;;4906471;29;20537;-61
2023/10/13 04:01:15;;;;;;;21.75;12.43;;;;;;;;;;4913955;29;20036;-61
2023/10/13 04:03:57;;;;;;;19.83;12.48;;;;;;;;;;4915133;29;20032;-61
2023/10/13 04:06:51;;;;;;;20.15;11.57;;;;;;;;;;4900985;29;20067;-61
2023/10/13 04:17:22;;;;;;;24.58;12.75;;;;;;;;;;4936913;29;20441;-60
2023/10/13 04:26:07;;;;;;;19.45;12.30;;;;;;;;;;4955580;29;20111;-60
2023/10/13 04:36:13;;;;;;;18.73;12.55;;;;;;;;;;4940236;29;20036;-60
2023/10/13 04:42:38;;;;;;;;;;;;;;;;;;4937039;29;20091;-59
2023/10/13 04:47:09;;;;;;;21.60;12.38;;;;;;;;;;4935925;29;20552;-61
2023/10/13 04:52:26;;;;;;;20.08;12.35;;;;;;;;;;4935350;29;20028;-60
2023/10/13 04:54:54;;;;;;;19.33;12.40;;;;;;;;;;4936558;29;20118;-62
2023/10/13 05:52:06;;;;;;;24.17;12.63;;;;;;;;;;4916304;29;20048;-62
2023/10/13 06:29:38;;;;;;;18.83;10.20;;;;;;;;;;4915796;29;20516;-62
2023/10/13 06:32:10;;;;;;;15.90;9.70;;;;;;;;;;4915006;29;20059;-64
2023/10/13 06:34:45;;;;;;;19.15;8.77;;;;;;;;;;4914311;29;20118;-63
2023/10/13 06:37:24;;;;;;;17.80;9.23;;;;;;;;;;4899605;29;20036;-63
2023/10/13 06:39:52;;;;;;;14.18;8.88;;;;;;;;;;4915265;29;20036;-63
2023/10/13 06:42:19;;;;;;;19.80;8.10;;;;;;;;;;4914986;29;20040;-62
2023/10/13 06:44:46;;;;;;;14.95;7.93;;;;;;;;;;4913530;29;20036;-62
2023/10/13 06:47:12;;;;;;;16.90;8.38;;;;;;;;;;4913794;29;20040;-64
2023/10/13 06:49:43;;;;;;;16.65;8.40;;;;;;;;;;4915005;29;20038;-65
2023/10/13 06:52:08;;;;;;;17.42;8.68;;;;;;;;;;4897298;29;20036;-65
2023/10/13 06:54:35;;;;;;;18.05;8.50;;;;;;;;;;4897526;29;20040;-63
2023/10/13 06:57:03;;;;;;;13.50;7.45;;;;;;;;;;4879387;29;20554;-66
2023/10/13 06:59:32;;;;;;;14.85;7.05;;;;;;;;;;4908877;29;20036;-64
2023/10/13 07:02:06;;;;;;;14.00;7.50;;;;;;;;;;4918401;29;20028;-66
2023/10/13 07:04:31;;;;;;;13.77;7.20;;;;;;;;;;4915319;29;20116;-64
2023/10/13 07:06:57;;;;;;;13.73;6.93;;;;;;;;;;4915405;29;20123;-64
2023/10/13 07:12:02;;;;;;;13.95;6.13;;;;;;;;;;4915161;29;20058;-65
2023/10/13 07:14:28;;;;;;;13.05;6.40;;;;;;;;;;4915090;29;20370;-64
2023/10/13 07:17:05;;;;;;;16.52;7.30;;;;;;;;;;4914948;29;20043;-64
2023/10/13 07:19:33;;;;;;;13.40;7.38;;;;;;;;;;4915149;29;20036;-64
2023/10/13 07:22:03;;;;;;;14.25;7.20;;;;;;;;;;4914241;29;20043;-62
2023/10/13 07:24:31;;;;;;;14.85;7.13;;;;;;;;;;4901858;29;20044;-61
2023/10/13 07:27:04;;;;;;;13.60;5.93;;;;;;;;;;4915138;29;20039;-62
2023/10/13 07:29:30;;;;;;;15.35;6.75;;;;;;;;;;4914990;29;20401;-61
2023/10/13 07:31:55;;;;;;;15.13;6.47;;;;;;;;;;4913405;29;20033;-63
2023/10/13 07:34:42;;;;;;;15.30;6.50;;;;;;;;;;4913764;29;20024;-63
2023/10/13 07:37:12;;;;;;;14.52;5.95;;;;;;;;;;4912651;29;20131;-62
2023/10/13 07:39:40;;;;;;;18.05;6.65;;;;;;;;;;4915328;29;20057;-63
2023/10/13 07:42:05;;;;;;;16.27;6.50;;;;;;;;;;4917300;29;20169;-63
2023/10/13 07:44:33;;;;;;;16.17;6.28;;;;;;;;;;4912891;29;20119;-64
2023/10/13 07:47:03;;;;;;;14.10;6.75;;;;;;;;;;4918106;29;20393;-62
2023/10/13 07:49:36;;;;;;;;;;;;;;;;;;4918626;29;20070;-63
2023/10/13 07:52:23;;;;;;;14.30;6.72;;;;;;;;;;4918457;29;19918;-64
2023/10/13 07:55:03;;;;;;;19.50;7.35;;;;;;;;;;4901620;29;20066;-63
2023/10/13 07:57:29;;;;;;;15.73;7.03;;;;;;;;;;4901482;29;20115;-63
2023/10/13 08:00:10;;;;;;;14.38;6.72;;;;;;;;;;4917739;29;20032;-64
2023/10/13 08:02:48;;;;;;;14.40;7.40;;;;;;;;;;4901617;29;20035;-63
2023/10/13 08:05:39;;;;;;;16.75;7.88;;;;;;;;;;4917439;29;20044;-62
2023/10/13 08:08:14;;;;;;;15.45;6.63;;;;;;;;;;4917560;29;20063;-63
2023/10/13 08:10:41;;;;;;;15.50;6.13;;;;;;;;;;4902979;29;20036;-63
2023/10/13 08:13:12;;;;;;;12.35;6.00;;;;;;;;;;4936631;29;20173;-64
2023/10/13 08:15:47;;;;;;;15.88;6.53;;;;;;;;;;4936627;29;20473;-63
2023/10/13 08:18:30;;;;;;;13.90;6.15;;;;;;;;;;4935458;29;20064;-63
2023/10/13 08:21:03;;;;;;;13.35;6.05;;;;;;;;;;4935227;29;20047;-62
2023/10/13 08:34:38;;;;;;;12.82;4.97;;;;;;;;;;4899790;29;20044;-62
2023/10/13 08:37:19;;;;;;;14.18;5.15;;;;;;;;;;4936990;29;20047;-62
2023/10/13 08:48:13;;;;;;;15.50;4.60;;;;;;;;;;4936721;29;20043;-61
2023/10/13 08:53:31;;;;;;;11.82;4.90;;;;;;;;;;4935485;29;20040;-61
2023/10/13 09:09:39;;;;;;;10.65;4.00;;;;;;;;;;4935030;29;20067;-60
2023/10/13 09:12:19;;;;;;;12.45;4.75;;;;;;;;;;4916782;29;20048;-61
2023/10/13 09:14:58;;;;;;;10.70;4.63;;;;;;;;;;4926515;29;20039;-61
2023/10/13 09:17:34;;;;;;;11.02;4.50;;;;;;;;;;4934448;29;20075;-61
2023/10/13 09:25:34;;;;;;;12.32;4.35;;;;;;;;;;4934663;29;20264;-61
2023/10/13 09:28:00;;;;;;;15.98;5.15;;;;;;;;;;4935912;29;20074;-60
2023/10/13 09:30:30;;;;;;;11.18;4.43;;;;;;;;;;4934739;29;20127;-60
2023/10/13 09:33:08;;;;;;;11.57;4.38;;;;;;;;;;4935244;29;20461;-60
2023/10/13 09:35:36;;;;;;;14.02;5.22;;;;;;;;;;4917975;29;20485;-61
2023/10/13 09:38:03;;;;;;;12.13;4.30;;;;;;;;;;4934924;29;20123;-60
2023/10/13 09:43:04;;;;;;;12.68;4.90;;;;;;;;;;4935655;29;20031;-61
2023/10/13 09:45:43;;;;;;;16.10;5.05;;;;;;;;;;4908822;29;20036;-61
2023/10/13 09:48:21;;;;;;;16.42;4.55;;;;;;;;;;4899320;29;20044;-62
2023/10/13 09:50:48;;;;;;;14.15;4.70;;;;;;;;;;4930397;29;20075;-61
2023/10/13 09:53:17;;;;;;;11.77;4.40;;;;;;;;;;4934595;29;20377;-61
2023/10/13 09:56:11;;;;;;;12.63;4.47;;;;;;;;;;4918342;29;20548;-60
2023/10/13 09:58:47;;;;;;;8.95;4.60;;;;;;;;;;4935400;29;20031;-60
2023/10/13 10:01:30;;;;;;;11.25;4.60;;;;;;;;;;4917051;29;20508;-62
2023/10/13 10:04:09;;;;;;;10.18;4.07;;;;;;;;;;4952239;29;20114;-60
2023/10/13 10:06:39;;;;;;;9.98;4.55;;;;;;;;;;4918311;29;20059;-60
2023/10/13 10:09:12;;;;;;;19.63;5.43;;;;;;;;;;4934387;29;20068;-61
2023/10/13 10:11:56;;;;;;;11.52;4.65;;;;;;;;;;4933763;29;20056;-60
2023/10/13 10:14:56;;;;;;;11.95;4.25;;;;;;;;;;4933725;29;20091;-60
2023/10/13 10:17:22;;;;;;;13.80;5.40;;;;;;;;;;4933594;29;20059;-61
2023/10/13 10:19:49;;;;;;;12.27;4.07;;;;;;;;;;4934418;29;20031;-60
2023/10/13 10:22:33;;;;;;;10.93;4.80;;;;;;;;;;4917197;29;20070;-60
2023/10/13 10:24:59;;;;;;;12.82;4.57;;;;;;;;;;4934129;29;20035;-60
2023/10/13 10:27:30;;;;;;;14.95;5.07;;;;;;;;;;4933230;29;20036;-59
2023/10/13 10:29:57;;;;;;;13.02;5.32;;;;;;;;;;4925046;29;20111;-59
2023/10/13 10:33:03;;;;;;;10.18;5.18;;;;;;;;;;4933641;29;20492;-59
2023/10/13 10:35:32;;;;;;;13.85;5.28;;;;;;;;;;4911238;29;20301;-60
2023/10/13 10:38:24;;;;;;;16.85;5.28;;;;;;;;;;4941302;29;20039;-59
2023/10/13 10:41:05;;;;;;;16.33;5.00;;;;;;;;;;4937902;29;20059;-61
2023/10/13 10:43:43;;;;;;;10.25;4.72;;;;;;;;;;4941408;29;20042;-59
2023/10/13 10:46:13;;;;;;;12.23;5.03;;;;;;;;;;4934055;29;20039;-61
2023/10/13 10:48:42;;;;;;;9.98;4.82;;;;;;;;;;4934579;29;20043;-59
2023/10/13 10:51:21;;;;;;;14.00;5.37;;;;;;;;;;4934181;29;20043;-62
2023/10/13 10:53:49;;;;;;;11.80;5.20;;;;;;;;;;4915803;29;20354;-61
2023/10/13 10:56:25;;;;;;;9.98;4.97;;;;;;;;;;4928747;29;20028;-61
2023/10/13 10:58:55;;;;;;;8.93;4.18;;;;;;;;;;4915674;29;20028;-61
2023/10/13 11:01:22;;;;;;;13.63;5.40;;;;;;;;;;4929236;29;20039;-62
2023/10/13 11:04:07;;;;;;;13.05;4.97;;;;;;;;;;4934532;29;20043;-62
2023/10/13 11:06:45;;;;;;;12.68;5.30;;;;;;;;;;4933518;29;20036;-61
2023/10/13 11:11:53;;;;;;;9.70;5.07;;;;;;;;;;4933886;29;20527;-59
2023/10/13 11:14:28;;;;;;;10.52;5.35;;;;;;;;;;4934263;29;20036;-61
2023/10/13 11:17:05;;;;;;;12.00;5.13;;;;;;;;;;4920751;29;20043;-62
2023/10/13 11:19:39;;;;;;;15.63;5.40;;;;;;;;;;4933184;29;20034;-62
2023/10/13 11:22:36;;;;;;;10.48;4.90;;;;;;;;;;4938256;29;20454;-61
2023/10/13 11:25:14;;;;;;;10.15;5.13;;;;;;;;;;4935489;29;20055;-61
2023/10/13 11:27:55;;;;;;;13.68;5.47;;;;;;;;;;4921226;29;20024;-61
2023/10/13 11:30:24;;;;;;;13.57;5.82;;;;;;;;;;4923779;29;20040;-61
2023/10/13 11:33:07;;;;;;;12.02;5.43;;;;;;;;;;4935154;29;20481;-61
2023/10/13 11:35:48;;;;;;;14.27;5.90;;;;;;;;;;4936555;29;20040;-61
2023/10/13 11:38:15;;;;;;;10.57;5.80;;;;;;;;;;4920035;29;20469;-61
2023/10/13 11:40:44;;;;;;;9.30;5.22;;;;;;;;;;4937420;29;20075;-60
2023/10/13 11:43:17;;;;;;;13.23;5.80;;;;;;;;;;4920853;29;20036;-62
2023/10/13 11:48:38;;;;;;;16.40;5.38;;;;;;;;;;4936916;29;20035;-61
2023/10/13 11:51:08;;;;;;;12.27;5.72;;;;;;;;;;4935895;29;20059;-61
2023/10/13 11:53:37;;;;;;;13.93;5.47;;;;;;;;;;4936587;29;20084;-60
2023/10/13 11:56:09;;;;;;;11.70;5.18;;;;;;;;;;4936888;29;20043;-61
2023/10/13 11:58:39;;;;;;;12.18;5.60;;;;;;;;;;4937248;29;20059;-60
2023/10/13 12:11:48;;;;;;;9.98;5.35;;;;;;;;;;4936535;29;20060;-61
2023/10/13 12:14:19;;;;;;;12.95;5.43;;;;;;;;;;4936228;29;20104;-61
2023/10/13 12:16:55;;;;;;;13.95;5.40;;;;;;;;;;4918876;29;20040;-60
2023/10/13 12:19:26;;;;;;;12.75;5.28;;;;;;;;;;4916994;29;20028;-62
2023/10/13 12:21:55;;;;;;;14.85;5.30;;;;;;;;;;4901065;29;20442;-61
2023/10/13 12:27:02;;;;;;;13.23;5.00;;;;;;;;;;4918127;29;20044;-62
2023/10/13 12:29:28;;;;;;;11.80;5.18;;;;;;;;;;4932226;29;20045;-62
2023/10/13 12:32:11;;;;;;;17.80;5.30;;;;;;;;;;4920849;29;20071;-61
2023/10/13 12:34:57;;;;;;;18.55;6.00;;;;;;;;;;4917164;29;20123;-61
2023/10/13 12:51:20;;;;;;;18.42;5.05;;;;;;;;;;4917369;29;20047;-62
2023/10/13 12:53:50;;;;;;;22.60;5.22;;;;;;;;;;4917508;29;20099;-61
2023/10/13 12:56:17;;;;;;;19.95;5.78;;;;;;;;;;4916657;29;20028;-60
2023/10/13 12:58:51;;;;;;;15.88;4.95;;;;;;;;;;4917694;29;20386;-61
2023/10/13 13:01:25;;;;;;;16.65;4.97;;;;;;;;;;4916586;29;20115;-60
2023/10/13 13:03:55;;;;;;;18.27;4.80;;;;;;;;;;4917168;29;20115;-60
2023/10/13 13:06:29;;;;;;;12.93;4.60;;;;;;;;;;4916409;29;20059;-59
2023/10/13 13:08:59;;;;;;;22.05;5.60;;;;;;;;;;4900647;29;20032;-59
2023/10/13 13:11:25;;;;;;;18.77;5.40;;;;;;;;;;4921493;29;20080;-60
2023/10/13 13:13:54;;;;;;;23.40;5.10;;;;;;;;;;4918925;29;20039;-61
2023/10/13 13:16:23;;;;;;;18.63;4.97;;;;;;;;;;4935481;29;20491;-60
2023/10/13 13:18:54;;;;;;;12.48;4.13;;;;;;;;;;4936201;29;20035;-60
2023/10/13 13:21:23;;;;;;;15.60;4.20;;;;;;;;;;4934642;29;20031;-61
2023/10/13 13:23:50;;;;;;;18.13;5.53;;;;;;;;;;4937278;29;20092;-60
2023/10/13 13:26:15;;;;;;;15.90;4.82;;;;;;;;;;4935179;29;20114;-60
2023/10/13 13:28:45;;;;;;;15.52;5.22;;;;;;;;;;4919094;29;20442;-60
2023/10/13 13:31:12;;;;;;;18.40;4.60;;;;;;;;;;4935971;29;20035;-61
2023/10/13 13:33:43;;;;;;;15.10;5.47;;;;;;;;;;4934427;29;20038;-61
2023/10/13 13:36:14;;;;;;;18.13;5.22;;;;;;;;;;4918627;29;20031;-59
2023/10/13 13:38:40;;;;;;;19.05;4.93;;;;;;;;;;4935537;29;20039;-60
2023/10/13 13:41:15;;;;;;;13.98;5.38;;;;;;;;;;4918526;29;20043;-61
2023/10/13 13:46:27;;;;;;;19.55;6.07;;;;;;;;;;4935839;29;20175;-62
2023/10/13 13:48:59;;;;;;;14.80;5.35;;;;;;;;;;4954999;29;20061;-62
2023/10/13 13:51:27;;;;;;;18.13;5.13;;;;;;;;;;4936622;29;20102;-61
2023/10/13 13:53:55;;;;;;;14.45;5.10;;;;;;;;;;4954882;29;20592;-65
2023/10/13 13:56:20;;;;;;;16.85;4.78;;;;;;;;;;4923540;29;20031;-64
2023/10/13 13:58:47;;;;;;;18.85;4.95;;;;;;;;;;4934691;29;20032;-62
2023/10/13 14:01:14;;;;;;;14.85;4.13;;;;;;;;;;4943930;29;20487;-62
2023/10/13 14:03:47;;;;;;;16.65;4.68;;;;;;;;;;4917345;29;20460;-61
2023/10/13 14:06:17;;;;;;;12.75;4.55;;;;;;;;;;4927441;29;20464;-62
2023/10/13 14:08:48;;;;;;;19.95;5.03;;;;;;;;;;4949362;29;20117;-62
2023/10/13 14:14:03;;;;;;;15.32;4.80;;;;;;;;;;4938866;29;20043;-62
2023/10/13 14:16:29;;;;;;;21.15;4.70;;;;;;;;;;4933578;29;20072;-62
2023/10/13 14:18:58;;;;;;;18.08;5.15;;;;;;;;;;4937992;29;20036;-65
2023/10/13 14:21:24;;;;;;;13.68;4.70;;;;;;;;;;4917234;29;20461;-62
2023/10/13 14:23:54;;;;;;;24.80;5.45;;;;;;;;;;4918036;29;20457;-63
2023/10/13 14:26:21;;;;;;;13.35;4.60;;;;;;;;;;4934199;29;20023;-63
2023/10/13 14:29:09;;;;;;;21.35;4.82;;;;;;;;;;4935005;29;20126;-64
2023/10/13 14:31:42;;;;;;;12.32;4.68;;;;;;;;;;4933890;29;20032;-62
2023/10/13 14:34:08;;;;;;;13.65;5.00;;;;;;;;;;4934863;29;20389;-62
2023/10/13 14:36:36;;;;;;;18.60;4.90;;;;;;;;;;4935166;29;20031;-62
2023/10/13 14:39:09;;;;;;;13.88;4.97;;;;;;;;;;4936779;29;20483;-62
2023/10/13 14:41:35;;;;;;;16.15;5.20;;;;;;;;;;4943025;29;20224;-61
2023/10/13 14:44:05;;;;;;;16.63;5.03;;;;;;;;;;4933371;29;20488;-61
2023/10/13 14:46:31;;;;;;;15.75;5.13;;;;;;;;;;4933392;29;20035;-63
2023/10/13 14:48:57;;;;;;;11.55;3.78;;;;;;;;;;4934298;29;20057;-61
2023/10/13 14:51:25;;;;;;;17.60;4.65;;;;;;;;;;4916378;29;20050;-62
2023/10/13 14:53:55;;;;;;;13.98;4.68;;;;;;;;;;4902324;29;20489;-61
2023/10/13 14:56:25;;;;;;;;;;;;;;;;;;4934447;29;20083;-62
2023/10/13 14:58:51;;;;;;;14.98;4.47;;;;;;;;;;4917317;29;20433;-61
2023/10/13 15:01:21;;;;;;;17.23;4.70;;;;;;;;;;4934122;29;20050;-62
2023/10/13 15:03:48;;;;;;;17.08;4.07;;;;;;;;;;4934332;29;20031;-63
2023/10/13 15:06:20;;;;;;;17.45;4.28;;;;;;;;;;4934691;29;20047;-62
2023/10/13 15:08:46;;;;;;;17.17;4.30;;;;;;;;;;4933960;29;20080;-61
2023/10/13 15:11:18;;;;;;;14.65;4.32;;;;;;;;;;4943559;29;20047;-61
2023/10/13 15:13:44;;;;;;;14.73;4.70;;;;;;;;;;4939181;29;20032;-62
2023/10/13 15:16:21;;;;;;;15.63;4.50;;;;;;;;;;4917295;29;20043;-62
2023/10/13 15:18:47;;;;;;;17.73;4.45;;;;;;;;;;4933629;29;20063;-62
2023/10/13 15:21:26;;;;;;;12.00;3.65;;;;;;;;;;4922093;29;20425;-61
2023/10/13 15:23:55;;;;;;;15.88;4.30;;;;;;;;;;4933873;29;20032;-63
2023/10/13 15:26:23;;;;;;;15.00;4.65;;;;;;;;;;4933578;29;20039;-62
2023/10/13 15:28:48;;;;;;;13.90;4.85;;;;;;;;;;4932777;29;20040;-62
2023/10/13 15:31:25;;;;;;;17.10;4.88;;;;;;;;;;4934346;29;20042;-62
2023/10/13 15:33:52;;;;;;;13.63;5.05;;;;;;;;;;4917063;29;20062;-62
2023/10/13 15:36:19;;;;;;;12.27;4.20;;;;;;;;;;4917394;29;20040;-62
2023/10/13 15:38:46;;;;;;;15.15;4.18;;;;;;;;;;4933101;29;20047;-62
2023/10/13 15:41:12;;;;;;;12.15;4.40;;;;;;;;;;4929284;29;20089;-63
2023/10/13 15:43:42;;;;;;;18.40;4.65;;;;;;;;;;4913649;29;20242;-62
2023/10/13 15:46:15;;;;;;;12.83;4.40;;;;;;;;;;4885572;29;20088;-63
2023/10/13 15:48:41;;;;;;;14.30;4.75;;;;;;;;;;4933594;29;20054;-62
2023/10/13 15:51:12;;;;;;;11.63;4.45;;;;;;;;;;4932913;29;20043;-60
2023/10/13 15:53:37;;;;;;;10.48;3.75;;;;;;;;;;4926518;29;20039;-60
2023/10/13 15:56:11;;;;;;;15.40;4.70;;;;;;;;;;4933525;29;20040;-61
2023/10/13 15:58:43;;;;;;;11.80;4.22;;;;;;;;;;4932523;29;20032;-60
2023/10/13 16:01:12;;;;;;;12.13;4.80;;;;;;;;;;4936138;29;20420;-61
2023/10/13 16:03:43;;;;;;;15.30;4.65;;;;;;;;;;4936479;29;20111;-60
2023/10/13 16:06:12;;;;;;;13.02;4.30;;;;;;;;;;4936786;29;20035;-60
2023/10/13 16:08:38;;;;;;;14.82;4.65;;;;;;;;;;4937086;29;20492;-60
2023/10/13 16:11:07;;;;;;;11.63;4.47;;;;;;;;;;4937316;29;20086;-61
2023/10/13 16:13:36;;;;;;;13.25;5.03;;;;;;;;;;4935965;29;20064;-60
2023/10/13 16:16:05;;;;;;;16.52;4.47;;;;;;;;;;4936939;29;20035;-61
2023/10/13 16:18:34;;;;;;;13.75;4.65;;;;;;;;;;4936571;29;20032;-60
2023/10/13 16:21:03;;;;;;;11.18;4.40;;;;;;;;;;4937160;29;20071;-60
2023/10/13 16:23:29;;;;;;;10.32;3.88;;;;;;;;;;4936208;29;20032;-61
2023/10/13 16:25:57;;;;;;;12.82;4.47;;;;;;;;;;4919622;29;20092;-61
2023/10/13 16:28:23;;;;;;;14.82;4.57;;;;;;;;;;4934854;29;20035;-63
2023/10/13 16:30:49;;;;;;;12.85;4.10;;;;;;;;;;4946948;29;20028;-61
2023/10/13 16:33:14;;;;;;;19.60;4.82;;;;;;;;;;4938500;29;20027;-60
2023/10/13 16:35:45;;;;;;;14.43;4.70;;;;;;;;;;4955509;29;20228;-60
2023/10/13 16:38:11;;;;;;;16.90;4.80;;;;;;;;;;4956310;29;20054;-60
2023/10/13 16:40:39;;;;;;;13.70;4.13;;;;;;;;;;4955374;29;20074;-60
2023/10/13 16:43:07;;;;;;;16.83;4.80;;;;;;;;;;4940879;29;20058;-60
2023/10/13 16:45:44;;;;;;;12.30;4.00;;;;;;;;;;4935442;29;20027;-59
2023/10/13 16:48:16;;;;;;;15.27;4.90;;;;;;;;;;4937091;29;20040;-60
2023/10/13 16:50:45;;;;;;;11.90;4.57;;;;;;;;;;4935674;29;20036;-60
2023/10/13 16:53:14;;;;;;;14.93;4.93;;;;;;;;;;4936564;29;20087;-60
2023/10/13 16:55:43;;;;;;;18.40;4.82;;;;;;;;;;4935979;29;20039;-60
2023/10/13 16:58:13;;;;;;;11.95;4.55;;;;;;;;;;4919179;29;20044;-60
2023/10/13 17:00:42;;;;;;;13.93;4.90;;;;;;;;;;4935581;29;20086;-60
2023/10/13 17:03:08;;;;;;;18.45;4.97;;;;;;;;;;4932758;29;20056;-61
2023/10/13 17:05:49;;;;;;;20.02;4.80;;;;;;;;;;4935311;29;20106;-61
2023/10/13 17:08:14;;;;;;;18.13;5.38;;;;;;;;;;4936552;29;20039;-61
2023/10/13 17:10:40;;;;;;;16.30;4.55;;;;;;;;;;4935639;29;20396;-60
2023/10/13 17:13:06;;;;;;;15.13;5.20;;;;;;;;;;4934477;29;20153;-60
2023/10/13 17:15:33;;;;;;;13.80;4.40;;;;;;;;;;4918514;29;20107;-60
2023/10/13 17:18:06;;;;;;;17.27;4.80;;;;;;;;;;4929185;29;20059;-60
2023/10/13 17:20:39;;;;;;;13.27;5.20;;;;;;;;;;4935111;29;20027;-61
2023/10/13 17:23:09;;;;;;;12.63;4.97;;;;;;;;;;4918617;29;20367;-60
2023/10/13 17:25:35;;;;;;;18.97;4.63;;;;;;;;;;4935299;29;20038;-60
2023/10/13 17:28:06;;;;;;;12.52;4.65;;;;;;;;;;4934765;29;20353;-60
2023/10/13 17:30:35;;;;;;;;;;;;;;;;;;4934909;29;20100;-61
2023/10/13 17:33:01;;;;;;;12.93;4.75;;;;;;;;;;4945411;29;19922;-61
2023/10/13 17:35:26;;;;;;;15.00;4.50;;;;;;;;;;4935459;29;20028;-62
2023/10/13 17:37:52;;;;;;;11.27;4.40;;;;;;;;;;4931678;29;20060;-62
2023/10/13 17:40:18;;;;;;;12.90;4.85;;;;;;;;;;4950310;29;20068;-60
2023/10/13 17:42:49;;;;;;;17.35;5.15;;;;;;;;;;4953874;29;20035;-60
2023/10/13 17:45:15;;;;;;;12.35;5.40;;;;;;;;;;4955007;29;20062;-60
2023/10/13 17:47:41;;;;;;;16.45;5.55;;;;;;;;;;4954141;29;20031;-61
2023/10/13 17:50:10;;;;;;;13.88;5.47;;;;;;;;;;4954900;29;20031;-60
2023/10/13 17:52:41;;;;;;;13.30;4.80;;;;;;;;;;4950833;29;20028;-61
2023/10/13 17:55:07;;;;;;;13.65;4.90;;;;;;;;;;4935457;29;20382;-61
2023/10/13 17:57:33;;;;;;;14.05;5.13;;;;;;;;;;4933449;29;20088;-61
2023/10/13 18:00:10;;;;;;;12.95;4.78;;;;;;;;;;4935373;29;20454;-61
2023/10/13 18:02:42;;;;;;;13.00;5.07;;;;;;;;;;4944005;29;20361;-59
2023/10/13 18:05:10;;;;;;;18.20;5.25;;;;;;;;;;4953924;29;20062;-59
2023/10/13 18:07:37;;;;;;;14.43;4.75;;;;;;;;;;4953969;29;20031;-61
2023/10/13 18:10:03;;;;;;;14.68;5.00;;;;;;;;;;4954108;29;20027;-61
2023/10/13 18:12:28;;;;;;;15.27;5.43;;;;;;;;;;4934034;29;20142;-63
2023/10/13 18:14:56;;;;;;;12.65;5.32;;;;;;;;;;4918691;29;20096;-61
2023/10/13 18:17:22;;;;;;;11.90;4.82;;;;;;;;;;4934655;29;20118;-60
2023/10/13 18:19:49;;;;;;;11.40;5.10;;;;;;;;;;4915648;29;20188;-60
2023/10/13 18:22:15;;;;;;;13.52;5.03;;;;;;;;;;4945736;29;20032;-60
2023/10/13 18:24:43;;;;;;;13.45;5.18;;;;;;;;;;4934419;29;20042;-61
2023/10/13 18:27:09;;;;;;;14.30;5.25;;;;;;;;;;4934616;29;20043;-61
2023/10/13 18:29:36;;;;;;;11.88;4.68;;;;;;;;;;4938462;29;20027;-61
2023/10/13 18:32:04;;;;;;;14.48;5.00;;;;;;;;;;4935793;29;20391;-61
2023/10/13 18:34:30;;;;;;;10.93;5.30;;;;;;;;;;4934123;29;20032;-64
2023/10/13 18:36:59;;;;;;;15.50;5.80;;;;;;;;;;4934758;29;20043;-62